Terminal Aerodrome Forecast
Issued by NWS Charleston, WV

Current Version | Previous Version | Graphics & Text | Print | Product List | Glossary On
Versions: 1 2 3 4 5 6 7 8 9 10 11 12 13 14 15 16 17 18 19 20 21 22 23 24 25 26 27
054
FTUS41 KRLX 280900 AAB
TAFEKN
TAF AMD
KEKN 280900Z 2809/2906 00000KT 1/4SM FG BKN001
     FM281300 19004KT P6SM SKC
     FM282000 15008KT P6SM BKN070
     FM290000 VRB03KT P6SM OVC040
     FM290300 VRB03KT 6SM -SHRA BKN030=

USA.gov is the U.S. government's official web portal to all federal, state and local government web resources and services.